sensor_id;sensor_type;location;lat;lon;timestamp;P1;durP1;ratioP1;P2;durP2;ratioP2
35909;SDS011;22004;49.120;-0.200;2022-07-06T00:01:46;3.83;;;1.20;;
35909;SDS011;22004;49.120;-0.200;2022-07-06T00:04:12;3.30;;;1.20;;
35909;SDS011;22004;49.120;-0.200;2022-07-06T00:06:37;4.35;;;1.30;;
35909;SDS011;22004;49.120;-0.200;2022-07-06T00:09:03;6.15;;;1.50;;
35909;SDS011;22004;49.120;-0.200;2022-07-06T00:11:30;3.30;;;1.48;;
35909;SDS011;22004;49.120;-0.200;2022-07-06T00:13:55;6.20;;;1.48;;
35909;SDS011;22004;49.120;-0.200;2022-07-06T00:16:21;5.70;;;1.85;;
35909;SDS011;22004;49.120;-0.200;2022-07-06T00:18:47;2.63;;;1.25;;
35909;SDS011;22004;49.120;-0.200;2022-07-06T00:21:12;5.78;;;1.48;;
35909;SDS011;22004;49.120;-0.200;2022-07-06T00:23:38;2.55;;;1.00;;
35909;SDS011;22004;49.120;-0.200;2022-07-06T00:26:03;6.32;;;1.30;;
35909;SDS011;22004;49.120;-0.200;2022-07-06T00:28:29;4.50;;;1.40;;
35909;SDS011;22004;49.120;-0.200;2022-07-06T00:30:54;4.15;;;1.08;;
35909;SDS011;22004;49.120;-0.200;2022-07-06T00:33:21;4.25;;;1.40;;
35909;SDS011;22004;49.120;-0.200;2022-07-06T00:35:47;3.35;;;1.30;;
35909;SDS011;22004;49.120;-0.200;2022-07-06T00:38:12;2.67;;;1.20;;
35909;SDS011;22004;49.120;-0.200;2022-07-06T00:40:37;5.43;;;1.17;;
35909;SDS011;22004;49.120;-0.200;2022-07-06T00:43:03;5.55;;;1.50;;
35909;SDS011;22004;49.120;-0.200;2022-07-06T00:45:28;4.30;;;1.13;;
35909;SDS011;22004;49.120;-0.200;2022-07-06T00:47:54;3.70;;;1.50;;
35909;SDS011;22004;49.120;-0.200;2022-07-06T00:50:20;2.08;;;1.20;;
35909;SDS011;22004;49.120;-0.200;2022-07-06T00:52:48;3.95;;;1.25;;
35909;SDS011;22004;49.120;-0.200;2022-07-06T00:55:22;6.18;;;2.08;;
35909;SDS011;22004;49.120;-0.200;2022-07-06T00:57:50;4.57;;;1.55;;
35909;SDS011;22004;49.120;-0.200;2022-07-06T01:00:16;8.10;;;1.27;;
35909;SDS011;22004;49.120;-0.200;2022-07-06T01:02:44;3.45;;;1.30;;
35909;SDS011;22004;49.120;-0.200;2022-07-06T01:05:11;4.53;;;1.70;;
35909;SDS011;22004;49.120;-0.200;2022-07-06T01:07:38;4.57;;;1.52;;
35909;SDS011;22004;49.120;-0.200;2022-07-06T01:10:05;6.57;;;1.77;;
35909;SDS011;22004;49.120;-0.200;2022-07-06T01:12:34;3.95;;;1.10;;
35909;SDS011;22004;49.120;-0.200;2022-07-06T01:15:01;3.33;;;1.20;;
35909;SDS011;22004;49.120;-0.200;2022-07-06T01:17:32;3.95;;;1.20;;
35909;SDS011;22004;49.120;-0.200;2022-07-06T01:19:58;4.88;;;1.70;;
35909;SDS011;22004;49.120;-0.200;2022-07-06T01:22:23;6.75;;;1.77;;
35909;SDS011;22004;49.120;-0.200;2022-07-06T01:24:48;5.70;;;1.75;;
35909;SDS011;22004;49.120;-0.200;2022-07-06T01:27:14;5.25;;;1.30;;
35909;SDS011;22004;49.120;-0.200;2022-07-06T01:29:39;2.85;;;1.27;;
35909;SDS011;22004;49.120;-0.200;2022-07-06T01:32:05;2.67;;;1.30;;
35909;SDS011;22004;49.120;-0.200;2022-07-06T01:34:31;4.75;;;1.50;;
35909;SDS011;22004;49.120;-0.200;2022-07-06T01:36:56;3.83;;;1.60;;
35909;SDS011;22004;49.120;-0.200;2022-07-06T01:39:22;4.68;;;1.40;;
35909;SDS011;22004;49.120;-0.200;2022-07-06T01:41:48;4.97;;;1.40;;
35909;SDS011;22004;49.120;-0.200;2022-07-06T01:44:13;5.57;;;1.55;;
35909;SDS011;22004;49.120;-0.200;2022-07-06T01:46:38;4.60;;;1.60;;
35909;SDS011;22004;49.120;-0.200;2022-07-06T01:49:05;4.68;;;1.48;;
35909;SDS011;22004;49.120;-0.200;2022-07-06T01:51:30;4.30;;;1.58;;
35909;SDS011;22004;49.120;-0.200;2022-07-06T01:53:56;3.78;;;1.25;;
35909;SDS011;22004;49.120;-0.200;2022-07-06T01:56:22;3.97;;;1.63;;
35909;SDS011;22004;49.120;-0.200;2022-07-06T01:58:48;4.10;;;1.88;;
35909;SDS011;22004;49.120;-0.200;2022-07-06T02:01:14;3.60;;;1.30;;
35909;SDS011;22004;49.120;-0.200;2022-07-06T02:03:42;2.38;;;1.30;;
35909;SDS011;22004;49.120;-0.200;2022-07-06T02:06:08;7.68;;;1.55;;
35909;SDS011;22004;49.120;-0.200;2022-07-06T02:08:34;4.68;;;1.10;;
35909;SDS011;22004;49.120;-0.200;2022-07-06T02:11:00;4.47;;;1.45;;
35909;SDS011;22004;49.120;-0.200;2022-07-06T02:13:27;9.00;;;1.88;;
35909;SDS011;22004;49.120;-0.200;2022-07-06T02:15:52;2.33;;;1.20;;
35909;SDS011;22004;49.120;-0.200;2022-07-06T02:18:18;4.05;;;2.05;;
35909;SDS011;22004;49.120;-0.200;2022-07-06T02:20:43;3.50;;;1.30;;
35909;SDS011;22004;49.120;-0.200;2022-07-06T02:23:08;4.78;;;1.40;;
35909;SDS011;22004;49.120;-0.200;2022-07-06T02:25:34;4.90;;;1.27;;
35909;SDS011;22004;49.120;-0.200;2022-07-06T02:27:59;5.78;;;1.50;;
35909;SDS011;22004;49.120;-0.200;2022-07-06T02:30:25;4.38;;;1.40;;
35909;SDS011;22004;49.120;-0.200;2022-07-06T02:32:50;3.88;;;1.40;;
35909;SDS011;22004;49.120;-0.200;2022-07-06T02:35:16;3.33;;;1.33;;
35909;SDS011;22004;49.120;-0.200;2022-07-06T02:37:41;3.42;;;1.30;;
35909;SDS011;22004;49.120;-0.200;2022-07-06T02:40:06;6.82;;;1.63;;
35909;SDS011;22004;49.120;-0.200;2022-07-06T02:42:32;2.30;;;1.23;;
35909;SDS011;22004;49.120;-0.200;2022-07-06T02:44:58;3.08;;;1.38;;
35909;SDS011;22004;49.120;-0.200;2022-07-06T02:47:23;2.83;;;1.23;;
35909;SDS011;22004;49.120;-0.200;2022-07-06T02:49:49;1.17;;;1.00;;
35909;SDS011;22004;49.120;-0.200;2022-07-06T02:52:14;3.53;;;1.67;;
35909;SDS011;22004;49.120;-0.200;2022-07-06T02:54:39;3.65;;;1.27;;
35909;SDS011;22004;49.120;-0.200;2022-07-06T02:57:05;3.53;;;1.63;;
35909;SDS011;22004;49.120;-0.200;2022-07-06T02:59:30;2.92;;;1.17;;
35909;SDS011;22004;49.120;-0.200;2022-07-06T03:01:55;4.38;;;1.30;;
35909;SDS011;22004;49.120;-0.200;2022-07-06T03:04:21;5.45;;;1.42;;
35909;SDS011;22004;49.120;-0.200;2022-07-06T03:06:46;7.00;;;1.60;;
35909;SDS011;22004;49.120;-0.200;2022-07-06T03:09:12;6.35;;;1.02;;
35909;SDS011;22004;49.120;-0.200;2022-07-06T03:11:38;5.53;;;1.63;;
35909;SDS011;22004;49.120;-0.200;2022-07-06T03:14:03;5.10;;;1.30;;
35909;SDS011;22004;49.120;-0.200;2022-07-06T03:16:29;1.58;;;1.05;;
35909;SDS011;22004;49.120;-0.200;2022-07-06T03:18:54;2.55;;;1.40;;
35909;SDS011;22004;49.120;-0.200;2022-07-06T03:21:20;4.10;;;1.65;;
35909;SDS011;22004;49.120;-0.200;2022-07-06T03:23:45;3.50;;;1.15;;
35909;SDS011;22004;49.120;-0.200;2022-07-06T03:26:10;5.18;;;1.38;;
35909;SDS011;22004;49.120;-0.200;2022-07-06T03:28:36;2.90;;;1.08;;
35909;SDS011;22004;49.120;-0.200;2022-07-06T03:31:01;5.07;;;1.42;;
35909;SDS011;22004;49.120;-0.200;2022-07-06T03:33:26;5.50;;;1.15;;
35909;SDS011;22004;49.120;-0.200;2022-07-06T03:35:52;3.22;;;1.20;;
35909;SDS011;22004;49.120;-0.200;2022-07-06T03:38:17;3.25;;;1.30;;
35909;SDS011;22004;49.120;-0.200;2022-07-06T03:40:42;3.10;;;1.20;;
35909;SDS011;22004;49.120;-0.200;2022-07-06T03:43:08;4.00;;;1.30;;
35909;SDS011;22004;49.120;-0.200;2022-07-06T03:45:33;3.63;;;1.60;;
35909;SDS011;22004;49.120;-0.200;2022-07-06T03:47:59;3.70;;;1.52;;
35909;SDS011;22004;49.120;-0.200;2022-07-06T03:50:24;5.00;;;1.40;;
35909;SDS011;22004;49.120;-0.200;2022-07-06T03:52:49;2.03;;;1.20;;
35909;SDS011;22004;49.120;-0.200;2022-07-06T03:55:15;1.98;;;1.02;;
35909;SDS011;22004;49.120;-0.200;2022-07-06T03:57:40;3.45;;;1.83;;
35909;SDS011;22004;49.120;-0.200;2022-07-06T04:00:06;2.60;;;1.27;;
35909;SDS011;22004;49.120;-0.200;2022-07-06T04:02:33;3.60;;;1.30;;
35909;SDS011;22004;49.120;-0.200;2022-07-06T04:04:59;2.83;;;1.23;;
35909;SDS011;22004;49.120;-0.200;2022-07-06T04:07:24;4.95;;;1.42;;
35909;SDS011;22004;49.120;-0.200;2022-07-06T04:09:50;3.70;;;1.42;;
35909;SDS011;22004;49.120;-0.200;2022-07-06T04:12:15;4.35;;;1.20;;
35909;SDS011;22004;49.120;-0.200;2022-07-06T04:14:41;3.08;;;1.40;;
35909;SDS011;22004;49.120;-0.200;2022-07-06T04:17:07;2.35;;;1.17;;
35909;SDS011;22004;49.120;-0.200;2022-07-06T04:20:11;8.18;;;1.85;;
35909;SDS011;22004;49.120;-0.200;2022-07-06T04:22:39;2.70;;;1.33;;
35909;SDS011;22004;49.120;-0.200;2022-07-06T04:25:05;5.15;;;1.40;;
35909;SDS011;22004;49.120;-0.200;2022-07-06T04:27:30;5.10;;;1.50;;
35909;SDS011;22004;49.120;-0.200;2022-07-06T04:29:56;3.50;;;1.10;;
35909;SDS011;22004;49.120;-0.200;2022-07-06T04:32:21;3.90;;;1.42;;
35909;SDS011;22004;49.120;-0.200;2022-07-06T04:34:46;2.67;;;1.25;;
35909;SDS011;22004;49.120;-0.200;2022-07-06T04:37:12;3.70;;;1.35;;
35909;SDS011;22004;49.120;-0.200;2022-07-06T04:39:37;4.60;;;1.40;;
35909;SDS011;22004;49.120;-0.200;2022-07-06T04:42:03;4.05;;;1.45;;
35909;SDS011;22004;49.120;-0.200;2022-07-06T04:44:28;3.90;;;1.40;;
35909;SDS011;22004;49.120;-0.200;2022-07-06T04:46:53;3.45;;;1.23;;
35909;SDS011;22004;49.120;-0.200;2022-07-06T04:49:19;4.45;;;1.50;;
35909;SDS011;22004;49.120;-0.200;2022-07-06T04:51:44;3.38;;;1.42;;
35909;SDS011;22004;49.120;-0.200;2022-07-06T04:54:10;3.00;;;1.55;;
35909;SDS011;22004;49.120;-0.200;2022-07-06T04:56:35;4.30;;;1.23;;
35909;SDS011;22004;49.120;-0.200;2022-07-06T04:59:00;3.03;;;1.30;;
35909;SDS011;22004;49.120;-0.200;2022-07-06T05:01:26;3.67;;;1.50;;
35909;SDS011;22004;49.120;-0.200;2022-07-06T05:03:51;1.60;;;1.30;;
35909;SDS011;22004;49.120;-0.200;2022-07-06T05:06:16;4.32;;;1.80;;
35909;SDS011;22004;49.120;-0.200;2022-07-06T05:08:43;2.00;;;1.02;;
35909;SDS011;22004;49.120;-0.200;2022-07-06T05:11:08;2.22;;;1.20;;
35909;SDS011;22004;49.120;-0.200;2022-07-06T05:13:34;6.38;;;1.38;;
35909;SDS011;22004;49.120;-0.200;2022-07-06T05:15:59;3.05;;;1.27;;
35909;SDS011;22004;49.120;-0.200;2022-07-06T05:18:24;2.35;;;1.13;;
35909;SDS011;22004;49.120;-0.200;2022-07-06T05:20:50;4.95;;;1.70;;
35909;SDS011;22004;49.120;-0.200;2022-07-06T05:23:15;2.42;;;1.30;;
35909;SDS011;22004;49.120;-0.200;2022-07-06T05:25:40;2.85;;;1.35;;
35909;SDS011;22004;49.120;-0.200;2022-07-06T05:28:05;4.20;;;1.50;;
35909;SDS011;22004;49.120;-0.200;2022-07-06T05:30:31;2.90;;;1.33;;
35909;SDS011;22004;49.120;-0.200;2022-07-06T05:32:56;2.03;;;1.10;;
35909;SDS011;22004;49.120;-0.200;2022-07-06T05:35:22;4.43;;;1.45;;
35909;SDS011;22004;49.120;-0.200;2022-07-06T05:37:47;5.93;;;1.42;;
35909;SDS011;22004;49.120;-0.200;2022-07-06T05:40:12;6.75;;;1.77;;
35909;SDS011;22004;49.120;-0.200;2022-07-06T05:42:38;3.10;;;1.38;;
35909;SDS011;22004;49.120;-0.200;2022-07-06T05:45:03;3.85;;;1.80;;
35909;SDS011;22004;49.120;-0.200;2022-07-06T05:47:30;3.33;;;1.40;;
35909;SDS011;22004;49.120;-0.200;2022-07-06T05:50:14;9.32;;;1.80;;
35909;SDS011;22004;49.120;-0.200;2022-07-06T05:52:42;4.45;;;1.60;;
35909;SDS011;22004;49.120;-0.200;2022-07-06T05:55:20;5.60;;;1.60;;
35909;SDS011;22004;49.120;-0.200;2022-07-06T05:57:46;2.78;;;1.42;;
35909;SDS011;22004;49.120;-0.200;2022-07-06T06:00:11;5.05;;;1.52;;
35909;SDS011;22004;49.120;-0.200;2022-07-06T06:02:38;2.30;;;1.30;;
35909;SDS011;22004;49.120;-0.200;2022-07-06T06:05:08;2.45;;;1.40;;
35909;SDS011;22004;49.120;-0.200;2022-07-06T06:07:35;4.70;;;1.70;;
35909;SDS011;22004;49.120;-0.200;2022-07-06T06:10:05;3.20;;;1.52;;
35909;SDS011;22004;49.120;-0.200;2022-07-06T06:12:35;2.63;;;1.40;;
35909;SDS011;22004;49.120;-0.200;2022-07-06T06:15:00;4.35;;;1.73;;
35909;SDS011;22004;49.120;-0.200;2022-07-06T06:17:26;5.20;;;2.42;;
35909;SDS011;22004;49.120;-0.200;2022-07-06T06:19:51;6.43;;;1.90;;
35909;SDS011;22004;49.120;-0.200;2022-07-06T06:22:17;4.63;;;1.77;;
35909;SDS011;22004;49.120;-0.200;2022-07-06T06:24:42;7.03;;;3.03;;
35909;SDS011;22004;49.120;-0.200;2022-07-06T06:27:07;8.90;;;2.60;;
35909;SDS011;22004;49.120;-0.200;2022-07-06T06:29:33;5.78;;;1.90;;
35909;SDS011;22004;49.120;-0.200;2022-07-06T06:31:58;8.95;;;3.80;;
35909;SDS011;22004;49.120;-0.200;2022-07-06T06:34:24;12.95;;;3.45;;
35909;SDS011;22004;49.120;-0.200;2022-07-06T06:36:49;5.40;;;2.10;;
35909;SDS011;22004;49.120;-0.200;2022-07-06T06:39:15;6.32;;;2.20;;
35909;SDS011;22004;49.120;-0.200;2022-07-06T06:41:40;19.30;;;4.22;;
35909;SDS011;22004;49.120;-0.200;2022-07-06T06:44:06;7.72;;;3.42;;
35909;SDS011;22004;49.120;-0.200;2022-07-06T06:46:31;12.60;;;4.55;;
35909;SDS011;22004;49.120;-0.200;2022-07-06T06:48:56;21.70;;;5.18;;
35909;SDS011;22004;49.120;-0.200;2022-07-06T06:51:22;15.55;;;5.25;;
35909;SDS011;22004;49.120;-0.200;2022-07-06T06:53:47;10.77;;;4.03;;
35909;SDS011;22004;49.120;-0.200;2022-07-06T06:56:13;12.50;;;4.35;;
35909;SDS011;22004;49.120;-0.200;2022-07-06T06:58:38;12.35;;;4.38;;
35909;SDS011;22004;49.120;-0.200;2022-07-06T07:01:04;14.95;;;4.63;;
35909;SDS011;22004;49.120;-0.200;2022-07-06T07:03:30;13.68;;;4.68;;
35909;SDS011;22004;49.120;-0.200;2022-07-06T07:05:56;15.32;;;4.40;;
35909;SDS011;22004;49.120;-0.200;2022-07-06T07:08:22;14.00;;;4.03;;
35909;SDS011;22004;49.120;-0.200;2022-07-06T07:10:48;15.98;;;5.05;;
35909;SDS011;22004;49.120;-0.200;2022-07-06T07:13:14;15.10;;;4.22;;
35909;SDS011;22004;49.120;-0.200;2022-07-06T07:15:39;7.00;;;2.65;;
35909;SDS011;22004;49.120;-0.200;2022-07-06T07:18:05;11.30;;;3.33;;
35909;SDS011;22004;49.120;-0.200;2022-07-06T07:20:30;10.82;;;4.10;;
35909;SDS011;22004;49.120;-0.200;2022-07-06T07:22:58;19.83;;;4.05;;
35909;SDS011;22004;49.120;-0.200;2022-07-06T07:25:23;14.23;;;3.92;;
35909;SDS011;22004;49.120;-0.200;2022-07-06T07:27:49;8.55;;;3.13;;
35909;SDS011;22004;49.120;-0.200;2022-07-06T07:30:14;8.48;;;3.45;;
35909;SDS011;22004;49.120;-0.200;2022-07-06T07:32:39;8.80;;;3.72;;
35909;SDS011;22004;49.120;-0.200;2022-07-06T07:35:08;6.43;;;2.38;;
35909;SDS011;22004;49.120;-0.200;2022-07-06T07:37:34;11.52;;;3.45;;
35909;SDS011;22004;49.120;-0.200;2022-07-06T07:40:00;15.82;;;3.83;;
35909;SDS011;22004;49.120;-0.200;2022-07-06T07:42:25;6.80;;;2.60;;
35909;SDS011;22004;49.120;-0.200;2022-07-06T07:44:51;8.10;;;2.70;;
35909;SDS011;22004;49.120;-0.200;2022-07-06T07:47:16;8.82;;;3.05;;
35909;SDS011;22004;49.120;-0.200;2022-07-06T07:49:42;6.40;;;2.30;;
35909;SDS011;22004;49.120;-0.200;2022-07-06T07:52:07;7.68;;;2.92;;
35909;SDS011;22004;49.120;-0.200;2022-07-06T07:54:33;7.78;;;2.30;;
35909;SDS011;22004;49.120;-0.200;2022-07-06T07:56:58;7.32;;;1.98;;
35909;SDS011;22004;49.120;-0.200;2022-07-06T07:59:24;4.45;;;1.95;;
35909;SDS011;22004;49.120;-0.200;2022-07-06T08:01:50;10.13;;;1.92;;
35909;SDS011;22004;49.120;-0.200;2022-07-06T08:04:16;9.25;;;2.50;;
35909;SDS011;22004;49.120;-0.200;2022-07-06T08:06:41;6.07;;;1.90;;
35909;SDS011;22004;49.120;-0.200;2022-07-06T08:09:07;3.28;;;1.90;;
35909;SDS011;22004;49.120;-0.200;2022-07-06T08:11:35;6.00;;;2.03;;
35909;SDS011;22004;49.120;-0.200;2022-07-06T08:14:01;5.13;;;1.67;;
35909;SDS011;22004;49.120;-0.200;2022-07-06T08:16:29;4.97;;;2.10;;
35909;SDS011;22004;49.120;-0.200;2022-07-06T08:18:55;7.93;;;2.00;;
35909;SDS011;22004;49.120;-0.200;2022-07-06T08:21:21;4.15;;;1.80;;
35909;SDS011;22004;49.120;-0.200;2022-07-06T08:23:46;5.70;;;2.55;;
35909;SDS011;22004;49.120;-0.200;2022-07-06T08:26:12;6.05;;;1.88;;
35909;SDS011;22004;49.120;-0.200;2022-07-06T08:28:37;15.82;;;2.60;;
35909;SDS011;22004;49.120;-0.200;2022-07-06T08:31:03;5.10;;;2.20;;
35909;SDS011;22004;49.120;-0.200;2022-07-06T08:33:28;4.47;;;1.90;;
35909;SDS011;22004;49.120;-0.200;2022-07-06T08:35:53;7.93;;;2.40;;
35909;SDS011;22004;49.120;-0.200;2022-07-06T08:38:19;6.68;;;2.30;;
35909;SDS011;22004;49.120;-0.200;2022-07-06T08:40:45;8.82;;;2.80;;
35909;SDS011;22004;49.120;-0.200;2022-07-06T08:43:13;5.18;;;2.22;;
35909;SDS011;22004;49.120;-0.200;2022-07-06T08:45:40;14.77;;;2.33;;
35909;SDS011;22004;49.120;-0.200;2022-07-06T08:48:08;6.63;;;2.40;;
35909;SDS011;22004;49.120;-0.200;2022-07-06T08:50:35;4.60;;;2.13;;
35909;SDS011;22004;49.120;-0.200;2022-07-06T08:53:00;4.97;;;2.03;;
35909;SDS011;22004;49.120;-0.200;2022-07-06T08:55:26;2.75;;;1.52;;
35909;SDS011;22004;49.120;-0.200;2022-07-06T08:57:52;4.82;;;1.95;;
35909;SDS011;22004;49.120;-0.200;2022-07-06T09:00:20;4.05;;;1.42;;
35909;SDS011;22004;49.120;-0.200;2022-07-06T09:02:45;4.30;;;1.70;;
35909;SDS011;22004;49.120;-0.200;2022-07-06T09:05:12;2.95;;;1.42;;
35909;SDS011;22004;49.120;-0.200;2022-07-06T09:07:39;6.38;;;1.77;;
35909;SDS011;22004;49.120;-0.200;2022-07-06T09:10:05;5.85;;;1.60;;
35909;SDS011;22004;49.120;-0.200;2022-07-06T09:12:33;3.38;;;1.60;;
35909;SDS011;22004;49.120;-0.200;2022-07-06T09:14:58;2.75;;;1.60;;
35909;SDS011;22004;49.120;-0.200;2022-07-06T09:17:27;5.18;;;1.70;;
35909;SDS011;22004;49.120;-0.200;2022-07-06T09:19:53;6.65;;;1.60;;
35909;SDS011;22004;49.120;-0.200;2022-07-06T09:22:28;4.22;;;1.30;;
35909;SDS011;22004;49.120;-0.200;2022-07-06T09:25:09;5.15;;;1.70;;
35909;SDS011;22004;49.120;-0.200;2022-07-06T09:27:41;3.78;;;1.48;;
35909;SDS011;22004;49.120;-0.200;2022-07-06T09:30:08;1.95;;;1.17;;
35909;SDS011;22004;49.120;-0.200;2022-07-06T09:32:39;4.30;;;1.35;;
35909;SDS011;22004;49.120;-0.200;2022-07-06T09:35:19;3.97;;;1.30;;
35909;SDS011;22004;49.120;-0.200;2022-07-06T09:38:11;3.10;;;1.40;;
35909;SDS011;22004;49.120;-0.200;2022-07-06T09:40:39;4.55;;;1.33;;
35909;SDS011;22004;49.120;-0.200;2022-07-06T09:45:41;2.28;;;1.13;;
35909;SDS011;22004;49.120;-0.200;2022-07-06T09:48:10;2.17;;;1.00;;
35909;SDS011;22004;49.120;-0.200;2022-07-06T09:50:39;3.95;;;1.42;;
35909;SDS011;22004;49.120;-0.200;2022-07-06T09:53:06;4.15;;;1.90;;
35909;SDS011;22004;49.120;-0.200;2022-07-06T09:55:32;4.75;;;1.10;;
35909;SDS011;22004;49.120;-0.200;2022-07-06T09:57:57;4.85;;;1.40;;
35909;SDS011;22004;49.120;-0.200;2022-07-06T10:00:23;2.30;;;1.17;;
35909;SDS011;22004;49.120;-0.200;2022-07-06T10:02:49;2.80;;;1.08;;
35909;SDS011;22004;49.120;-0.200;2022-07-06T10:05:17;2.28;;;1.00;;
35909;SDS011;22004;49.120;-0.200;2022-07-06T10:07:47;4.50;;;1.17;;
35909;SDS011;22004;49.120;-0.200;2022-07-06T10:10:15;1.95;;;1.23;;
35909;SDS011;22004;49.120;-0.200;2022-07-06T10:12:42;1.10;;;0.90;;
35909;SDS011;22004;49.120;-0.200;2022-07-06T10:15:10;1.90;;;0.88;;
35909;SDS011;22004;49.120;-0.200;2022-07-06T10:17:37;2.38;;;1.13;;
35909;SDS011;22004;49.120;-0.200;2022-07-06T10:20:04;4.38;;;0.80;;
35909;SDS011;22004;49.120;-0.200;2022-07-06T10:22:30;2.95;;;1.30;;
35909;SDS011;22004;49.120;-0.200;2022-07-06T10:24:56;2.65;;;1.05;;
35909;SDS011;22004;49.120;-0.200;2022-07-06T10:27:24;2.10;;;1.00;;
35909;SDS011;22004;49.120;-0.200;2022-07-06T10:29:49;2.67;;;1.30;;
35909;SDS011;22004;49.120;-0.200;2022-07-06T10:32:17;1.67;;;0.80;;
35909;SDS011;22004;49.120;-0.200;2022-07-06T10:34:44;1.40;;;1.10;;
35909;SDS011;22004;49.120;-0.200;2022-07-06T10:37:20;1.63;;;0.85;;
35909;SDS011;22004;49.120;-0.200;2022-07-06T10:39:49;3.22;;;1.10;;
35909;SDS011;22004;49.120;-0.200;2022-07-06T10:45:06;1.45;;;0.88;;
35909;SDS011;22004;49.120;-0.200;2022-07-06T10:47:33;2.25;;;1.15;;
35909;SDS011;22004;49.120;-0.200;2022-07-06T10:50:00;2.25;;;0.98;;
35909;SDS011;22004;49.120;-0.200;2022-07-06T10:55:34;2.92;;;1.20;;
35909;SDS011;22004;49.120;-0.200;2022-07-06T10:58:01;2.78;;;1.30;;
35909;SDS011;22004;49.120;-0.200;2022-07-06T11:03:35;3.40;;;1.23;;
35909;SDS011;22004;49.120;-0.200;2022-07-06T11:06:07;1.30;;;1.13;;
35909;SDS011;22004;49.120;-0.200;2022-07-06T11:11:37;3.17;;;1.00;;
35909;SDS011;22004;49.120;-0.200;2022-07-06T11:14:10;1.20;;;1.00;;
35909;SDS011;22004;49.120;-0.200;2022-07-06T11:19:28;1.80;;;1.30;;
35909;SDS011;22004;49.120;-0.200;2022-07-06T11:21:55;3.15;;;1.10;;
35909;SDS011;22004;49.120;-0.200;2022-07-06T11:24:23;1.92;;;1.10;;
35909;SDS011;22004;49.120;-0.200;2022-07-06T11:26:52;1.10;;;0.98;;
35909;SDS011;22004;49.120;-0.200;2022-07-06T11:29:19;2.20;;;1.30;;
35909;SDS011;22004;49.120;-0.200;2022-07-06T11:31:47;5.13;;;1.08;;
35909;SDS011;22004;49.120;-0.200;2022-07-06T11:34:18;3.72;;;1.10;;
35909;SDS011;22004;49.120;-0.200;2022-07-06T11:37:06;2.13;;;1.27;;
35909;SDS011;22004;49.120;-0.200;2022-07-06T11:39:33;2.58;;;1.02;;
35909;SDS011;22004;49.120;-0.200;2022-07-06T11:42:00;1.55;;;1.00;;
35909;SDS011;22004;49.120;-0.200;2022-07-06T11:44:26;1.27;;;0.90;;
35909;SDS011;22004;49.120;-0.200;2022-07-06T11:46:51;2.28;;;1.13;;
35909;SDS011;22004;49.120;-0.200;2022-07-06T11:49:17;2.83;;;1.25;;
35909;SDS011;22004;49.120;-0.200;2022-07-06T11:51:44;3.55;;;1.30;;
35909;SDS011;22004;49.120;-0.200;2022-07-06T11:54:12;3.47;;;1.10;;
35909;SDS011;22004;49.120;-0.200;2022-07-06T11:56:45;3.13;;;1.20;;
35909;SDS011;22004;49.120;-0.200;2022-07-06T11:59:12;2.65;;;1.20;;
35909;SDS011;22004;49.120;-0.200;2022-07-06T12:01:39;1.33;;;1.10;;
35909;SDS011;22004;49.120;-0.200;2022-07-06T12:04:09;3.47;;;1.38;;
35909;SDS011;22004;49.120;-0.200;2022-07-06T12:06:35;4.93;;;1.40;;
35909;SDS011;22004;49.120;-0.200;2022-07-06T12:09:00;3.25;;;1.40;;
35909;SDS011;22004;49.120;-0.200;2022-07-06T12:11:32;3.53;;;1.27;;
35909;SDS011;22004;49.120;-0.200;2022-07-06T12:14:03;3.38;;;1.40;;
35909;SDS011;22004;49.120;-0.200;2022-07-06T12:16:39;3.25;;;1.42;;
35909;SDS011;22004;49.120;-0.200;2022-07-06T12:19:05;3.22;;;1.60;;
35909;SDS011;22004;49.120;-0.200;2022-07-06T12:21:33;3.83;;;2.08;;
35909;SDS011;22004;49.120;-0.200;2022-07-06T12:23:59;3.08;;;1.33;;
35909;SDS011;22004;49.120;-0.200;2022-07-06T12:26:25;2.55;;;1.50;;
35909;SDS011;22004;49.120;-0.200;2022-07-06T12:29:02;3.05;;;1.40;;
35909;SDS011;22004;49.120;-0.200;2022-07-06T12:31:52;4.95;;;1.40;;
35909;SDS011;22004;49.120;-0.200;2022-07-06T12:34:18;3.55;;;1.50;;
35909;SDS011;22004;49.120;-0.200;2022-07-06T12:36:55;4.10;;;1.35;;
35909;SDS011;22004;49.120;-0.200;2022-07-06T12:39:25;4.25;;;1.15;;
35909;SDS011;22004;49.120;-0.200;2022-07-06T12:41:54;1.77;;;1.20;;
35909;SDS011;22004;49.120;-0.200;2022-07-06T12:44:27;2.20;;;1.20;;
35909;SDS011;22004;49.120;-0.200;2022-07-06T12:47:11;1.83;;;1.30;;
35909;SDS011;22004;49.120;-0.200;2022-07-06T12:49:38;3.10;;;1.52;;
35909;SDS011;22004;49.120;-0.200;2022-07-06T12:57:03;1.58;;;1.25;;
35909;SDS011;22004;49.120;-0.200;2022-07-06T12:59:29;1.85;;;1.30;;
35909;SDS011;22004;49.120;-0.200;2022-07-06T13:01:56;2.90;;;1.20;;
35909;SDS011;22004;49.120;-0.200;2022-07-06T13:04:23;1.98;;;0.90;;
35909;SDS011;22004;49.120;-0.200;2022-07-06T13:06:53;1.40;;;1.30;;
35909;SDS011;22004;49.120;-0.200;2022-07-06T13:09:19;1.40;;;1.02;;
35909;SDS011;22004;49.120;-0.200;2022-07-06T13:11:46;3.90;;;1.08;;
35909;SDS011;22004;49.120;-0.200;2022-07-06T13:14:12;1.15;;;1.00;;
35909;SDS011;22004;49.120;-0.200;2022-07-06T13:16:39;1.42;;;0.90;;
35909;SDS011;22004;49.120;-0.200;2022-07-06T13:19:04;1.02;;;0.88;;
35909;SDS011;22004;49.120;-0.200;2022-07-06T13:21:29;3.63;;;1.20;;
35909;SDS011;22004;49.120;-0.200;2022-07-06T13:23:55;2.63;;;1.55;;
35909;SDS011;22004;49.120;-0.200;2022-07-06T13:26:21;1.30;;;0.98;;
35909;SDS011;22004;49.120;-0.200;2022-07-06T13:28:47;3.38;;;1.17;;
35909;SDS011;22004;49.120;-0.200;2022-07-06T13:31:12;1.10;;;1.00;;
35909;SDS011;22004;49.120;-0.200;2022-07-06T13:33:37;2.22;;;0.98;;
35909;SDS011;22004;49.120;-0.200;2022-07-06T13:36:03;1.80;;;0.90;;
35909;SDS011;22004;49.120;-0.200;2022-07-06T13:38:29;0.60;;;0.60;;
35909;SDS011;22004;49.120;-0.200;2022-07-06T13:40:54;1.48;;;0.75;;
35909;SDS011;22004;49.120;-0.200;2022-07-06T13:43:20;1.45;;;0.88;;
35909;SDS011;22004;49.120;-0.200;2022-07-06T13:45:45;1.13;;;1.05;;
35909;SDS011;22004;49.120;-0.200;2022-07-06T13:48:12;3.50;;;1.05;;
35909;SDS011;22004;49.120;-0.200;2022-07-06T13:50:37;3.30;;;0.95;;
35909;SDS011;22004;49.120;-0.200;2022-07-06T13:53:03;1.00;;;0.90;;
35909;SDS011;22004;49.120;-0.200;2022-07-06T13:55:29;1.75;;;1.20;;
35909;SDS011;22004;49.120;-0.200;2022-07-06T13:57:55;4.80;;;1.20;;
35909;SDS011;22004;49.120;-0.200;2022-07-06T14:00:20;3.83;;;0.85;;
35909;SDS011;22004;49.120;-0.200;2022-07-06T14:02:46;4.05;;;1.20;;
35909;SDS011;22004;49.120;-0.200;2022-07-06T14:05:12;3.72;;;0.98;;
35909;SDS011;22004;49.120;-0.200;2022-07-06T14:07:37;1.65;;;0.90;;
35909;SDS011;22004;49.120;-0.200;2022-07-06T14:10:02;4.22;;;1.38;;
35909;SDS011;22004;49.120;-0.200;2022-07-06T14:12:28;2.33;;;1.08;;
35909;SDS011;22004;49.120;-0.200;2022-07-06T14:14:53;3.85;;;1.02;;
35909;SDS011;22004;49.120;-0.200;2022-07-06T14:17:19;4.40;;;1.30;;
35909;SDS011;22004;49.120;-0.200;2022-07-06T14:19:44;4.45;;;1.40;;
35909;SDS011;22004;49.120;-0.200;2022-07-06T14:22:10;4.00;;;1.42;;
35909;SDS011;22004;49.120;-0.200;2022-07-06T14:24:35;4.22;;;1.20;;
35909;SDS011;22004;49.120;-0.200;2022-07-06T14:27:00;5.43;;;1.38;;
35909;SDS011;22004;49.120;-0.200;2022-07-06T14:29:26;3.78;;;1.17;;
35909;SDS011;22004;49.120;-0.200;2022-07-06T14:31:51;1.73;;;1.10;;
35909;SDS011;22004;49.120;-0.200;2022-07-06T14:34:17;6.78;;;1.45;;
35909;SDS011;22004;49.120;-0.200;2022-07-06T14:36:42;5.03;;;1.30;;
35909;SDS011;22004;49.120;-0.200;2022-07-06T14:39:07;1.67;;;1.00;;
35909;SDS011;22004;49.120;-0.200;2022-07-06T14:41:33;2.75;;;1.30;;
35909;SDS011;22004;49.120;-0.200;2022-07-06T14:44:00;2.53;;;1.05;;
35909;SDS011;22004;49.120;-0.200;2022-07-06T14:46:25;2.22;;;1.00;;
35909;SDS011;22004;49.120;-0.200;2022-07-06T14:48:51;1.52;;;1.00;;
35909;SDS011;22004;49.120;-0.200;2022-07-06T14:51:16;5.75;;;1.20;;
35909;SDS011;22004;49.120;-0.200;2022-07-06T14:53:42;2.10;;;1.08;;